CHICAGO O'HARE INTL

KORD (ORD)
Chicago, Illinois
Towered

Vatsim Metar:
KORD 291851Z 34008KT 10SM OVC016 M04/M08 A3022 RMK AO2 SLP241 T10441083

No ATC Online

Traffic

Inbound:
Ident
Type
Name
ETA
Phase
DAL1423
B737
Wil Artman 8A0
19:43 Z
Cruse
AWI2933
DHC6
952535 KATW
Boarding
AUA65
B763
Kristian Nikolic EDDF
19:50 Z
Cruse
UAL2039
B772
Flavio Blanco SBTE
20:11 Z
Cruse
UAL2312
B738
Perez H. TAPA
20:34 Z
Climb
UAL152
B772
Tom Hartigan KORD
20:43 Z
Cruse
DAL7115
A310
Tyler KORD
22:00 Z
Cruse
AAL664
B739
George Morris KPWK
Taxiing Out

Outbound:
Ident
Type
Name
Destination
Phase
DAL275
A320
Anthony Ciceu CYYZ
KBOS
Boarding
UAL43CW
A320
Wilks EGCC
CYYZ
Boarding
DAL1492
B738
nathan s KORD
KSLC
Boarding
GTI3655
B738
Chase Fellbaum KIAH
KCVG
Boarding
UA165
C700
Julio S PHL
KPHL
Climb
AAL2897
A320
1637158 KUGN
KIAH
Climb
AAL1160
B738
Martin Hall KLGA
KDEN
Climb

IAPs